Time;durP1;ratioP1;P1;durP2;ratioP2;P2;SDS_P1;SDS_P2;PMS_P1;PMS_P2;Temp;Humidity;BMP_temperature;BMP_pressure;BME280_temperature;BME280_humidity;BME280_pressure;Samples;Min_cycle;Max_cycle;Signal;HPM_P1;HPM_P2
2023/10/09 00:00:55;;;;;;;9.05;5.30;;;13.90;99.90;;;;;;5093006;28;20032;-59
2023/10/09 00:02:53;;;;;;;11.40;5.75;;;13.80;99.90;;;;;;5081813;28;20075;-59
2023/10/09 00:05:37;;;;;;;11.98;6.60;;;13.80;99.90;;;;;;5092084;28;20051;-60
2023/10/09 00:08:03;;;;;;;11.20;4.63;;;13.80;99.90;;;;;;5091177;28;20036;-60
2023/10/09 00:10:48;;;;;;;14.40;6.63;;;13.80;99.90;;;;;;5093798;28;20054;-59
2023/10/09 00:13:13;;;;;;;;;;;13.90;99.90;;;;;;5093593;28;20048;-60
2023/10/09 00:15:40;;;;;;;11.35;7.28;;;13.80;99.90;;;;;;5093466;28;19916;-60
2023/10/09 00:18:11;;;;;;;12.70;6.53;;;13.80;99.90;;;;;;5093359;28;20124;-58
2023/10/09 00:20:42;;;;;;;17.67;8.68;;;13.80;99.90;;;;;;5099628;28;20052;-58
2023/10/09 00:23:12;;;;;;;17.02;8.70;;;13.80;99.90;;;;;;5093937;28;20051;-57
2023/10/09 00:25:44;;;;;;;19.10;9.82;;;13.90;99.90;;;;;;5093268;28;20040;-57
2023/10/09 00:28:10;;;;;;;17.58;10.20;;;13.90;99.90;;;;;;5093542;28;20036;-58
2023/10/09 00:30:41;;;;;;;17.77;10.73;;;13.90;99.90;;;;;;5092950;28;20467;-60
2023/10/09 00:33:11;;;;;;;21.83;12.50;;;13.90;99.90;;;;;;5091502;28;20040;-60
2023/10/09 00:35:46;;;;;;;19.83;11.77;;;14.00;99.90;;;;;;5093143;28;20511;-60
2023/10/09 00:40:52;;;;;;;22.27;13.88;;;13.80;99.90;;;;;;5093221;28;20429;-59
2023/10/09 00:43:19;;;;;;;23.05;9.63;;;13.90;99.90;;;;;;5092929;28;20050;-59
2023/10/09 00:45:47;;;;;;;23.27;14.02;;;13.90;99.90;;;;;;5092887;28;20044;-59
2023/10/09 00:48:29;;;;;;;27.17;15.27;;;13.90;99.90;;;;;;5092589;28;20122;-60
2023/10/09 00:50:57;;;;;;;24.77;14.68;;;13.90;99.90;;;;;;5107232;28;20048;-60
2023/10/09 00:53:30;;;;;;;26.17;16.17;;;14.00;99.90;;;;;;5091675;28;20096;-60
2023/10/09 00:56:03;;;;;;;28.67;17.33;;;14.00;99.90;;;;;;5092622;28;20032;-59
2023/10/09 00:58:31;;;;;;;30.88;17.63;;;14.00;99.90;;;;;;5110750;28;20035;-61
2023/10/09 01:00:59;;;;;;;29.48;17.80;;;13.90;99.90;;;;;;5098124;28;20055;-60
2023/10/09 01:03:25;;;;;;;28.88;18.50;;;14.00;99.90;;;;;;5091323;28;20180;-59
2023/10/09 01:11:09;;;;;;;34.28;19.35;;;14.00;99.90;;;;;;5091119;28;20107;-60
2023/10/09 01:13:52;;;;;;;36.67;21.20;;;14.00;99.90;;;;;;5092147;28;20616;-59
2023/10/09 01:16:22;;;;;;;34.25;20.65;;;13.90;99.90;;;;;;5091644;28;20654;-58
2023/10/09 01:18:50;;;;;;;36.83;20.67;;;13.90;99.90;;;;;;5091849;28;20040;-59
2023/10/09 01:21:26;;;;;;;38.53;22.05;;;14.10;99.90;;;;;;5092316;28;20044;-59
2023/10/09 01:26:57;;;;;;;34.97;21.95;;;13.90;99.90;;;;;;5093371;28;20086;-60
2023/10/09 01:29:27;;;;;;;37.03;22.23;;;13.90;99.90;;;;;;5088652;28;20078;-58
2023/10/09 01:32:00;;;;;;;35.10;22.45;;;14.00;99.90;;;;;;5090332;28;20036;-59
2023/10/09 01:34:41;;;;;;;37.40;15.70;;;14.00;99.90;;;;;;5088113;28;20032;-59
2023/10/09 01:37:15;;;;;;;34.20;15.27;;;13.90;99.90;;;;;;5090848;28;20046;-59
2023/10/09 01:39:42;;;;;;;41.42;23.70;;;14.10;99.90;;;;;;5090161;28;20039;-58
2023/10/09 01:42:09;;;;;;;37.63;23.88;;;13.90;99.90;;;;;;5089255;28;20036;-59
2023/10/09 01:44:42;;;;;;;39.83;25.45;;;14.10;99.90;;;;;;5089748;28;20036;-59
2023/10/09 01:47:09;;;;;;;44.00;25.30;;;14.00;99.90;;;;;;5091063;28;20501;-57
2023/10/09 01:49:41;;;;;;;48.20;27.23;;;14.10;99.90;;;;;;5091116;28;20101;-59
2023/10/09 01:52:15;;;;;;;48.95;27.65;;;14.00;99.90;;;;;;5091459;28;20048;-59
2023/10/09 01:54:41;;;;;;;;;;;14.00;99.90;;;;;;5091589;28;20040;-59
2023/10/09 01:57:13;;;;;;;42.70;26.67;;;14.20;99.90;;;;;;5091389;28;19916;-60
2023/10/09 01:59:49;;;;;;;46.00;26.33;;;14.00;99.90;;;;;;5088664;28;20379;-59
2023/10/09 02:02:34;;;;;;;42.63;27.50;;;14.20;99.90;;;;;;5089754;28;20044;-58
2023/10/09 02:07:44;;;;;;;48.05;29.58;;;14.20;99.90;;;;;;5091616;28;20093;-59
2023/10/09 02:10:25;;;;;;;46.65;28.80;;;14.00;99.90;;;;;;5090727;28;20471;-61
2023/10/09 02:12:58;;;;;;;50.30;29.75;;;14.20;99.90;;;;;;5091152;28;20032;-59
2023/10/09 02:15:51;;;;;;;49.67;31.13;;;14.30;99.90;;;;;;5109616;28;20032;-59
2023/10/09 02:23:40;;;;;;;51.55;32.03;;;14.20;99.90;;;;;;5109825;28;20046;-58
2023/10/09 02:26:08;;;;;;;54.67;32.55;;;14.40;99.90;;;;;;5111627;28;20062;-60
2023/10/09 02:28:34;;;;;;;48.00;31.35;;;14.40;99.90;;;;;;5090231;28;20055;-59
2023/10/09 02:31:09;;;;;;;55.03;32.90;;;14.40;99.90;;;;;;5097816;28;20174;-59
2023/10/09 02:33:36;;;;;;;53.08;22.23;;;14.30;99.90;;;;;;5090835;28;20055;-60
2023/10/09 02:36:05;;;;;;;57.70;34.10;;;14.40;99.90;;;;;;5092028;28;20122;-59
2023/10/09 02:38:35;;;;;;;61.95;36.53;;;14.20;99.90;;;;;;5111060;28;20047;-60
2023/10/09 02:43:44;;;;;;;66.18;25.15;;;14.50;99.90;;;;;;5111186;28;20118;-59
2023/10/09 02:46:29;;;;;;;59.42;26.35;;;14.50;99.90;;;;;;5095341;28;20115;-60
2023/10/09 02:48:57;;;;;;;59.25;35.38;;;14.30;99.90;;;;;;5090707;28;20044;-60
2023/10/09 02:53:57;;;;;;;66.75;37.70;;;14.40;99.90;;;;;;5090398;28;20040;-59
2023/10/09 02:59:21;;;;;;;58.53;35.22;;;14.50;99.90;;;;;;5087088;28;20474;-61
2023/10/09 03:01:47;;;;;;;59.45;37.60;;;14.30;99.90;;;;;;5097264;28;20036;-59
2023/10/09 03:04:15;;;;;;;73.03;40.88;;;14.30;99.90;;;;;;5090389;28;20395;-59
2023/10/09 03:06:49;;;;;;;72.85;40.55;;;14.40;99.90;;;;;;5090815;28;20111;-61
2023/10/09 03:09:19;;;;;;;70.20;39.40;;;14.50;99.90;;;;;;5090363;28;20047;-59
2023/10/09 03:12:13;;;;;;;65.90;41.53;;;14.40;99.90;;;;;;5090286;28;20052;-60
2023/10/09 03:14:41;;;;;;;74.80;41.92;;;14.70;99.90;;;;;;5089548;28;20047;-60
2023/10/09 03:17:11;;;;;;;74.65;41.42;;;14.60;99.90;;;;;;5100545;28;20063;-60
2023/10/09 03:19:40;;;;;;;69.00;28.08;;;14.70;99.90;;;;;;5090616;28;20036;-60
2023/10/09 03:22:10;;;;;;;78.18;42.67;;;14.80;99.90;;;;;;5108756;28;20042;-59
2023/10/09 03:24:36;;;;;;;67.53;40.58;;;14.60;99.90;;;;;;5110270;28;20039;-60
2023/10/09 03:27:03;;;;;;;67.78;41.13;;;14.80;99.90;;;;;;5107937;28;20074;-60
2023/10/09 03:29:28;;;;;;;72.22;40.13;;;14.60;99.90;;;;;;5092955;28;20509;-60
2023/10/09 03:31:56;;;;;;;83.20;42.95;;;14.80;99.90;;;;;;5093217;28;20123;-61
2023/10/09 03:34:22;;;;;;;69.07;39.50;;;15.00;99.90;;;;;;5089628;28;20044;-59
2023/10/09 03:36:48;;;;;;;71.40;40.35;;;14.90;99.90;;;;;;5086438;28;20038;-61
2023/10/09 03:41:58;;;;;;;67.88;39.53;;;15.00;99.90;;;;;;5103482;28;20048;-59
2023/10/09 03:44:28;;;;;;;70.15;39.92;;;14.80;99.90;;;;;;5093908;28;20044;-60
2023/10/09 03:46:54;;;;;;;69.20;39.97;;;14.80;99.90;;;;;;5091534;28;20357;-60
2023/10/09 03:49:25;;;;;;;64.35;38.40;;;15.10;99.90;;;;;;5094035;28;20036;-61
2023/10/09 03:51:52;;;;;;;71.38;41.03;;;15.20;99.90;;;;;;5093703;28;20058;-59
2023/10/09 03:54:22;;;;;;;64.40;37.92;;;14.90;99.90;;;;;;5095302;28;20047;-61
2023/10/09 03:56:54;;;;;;;64.47;39.38;;;15.20;99.90;;;;;;5094026;28;20509;-58
2023/10/09 03:59:21;;;;;;;74.03;28.70;;;15.00;99.90;;;;;;5093617;28;20078;-60
2023/10/09 04:01:52;;;;;;;66.13;38.10;;;15.00;99.90;;;;;;5093936;28;20471;-60
2023/10/09 04:04:22;;;;;;;64.32;29.73;;;15.00;99.90;;;;;;5093925;28;20387;-61
2023/10/09 04:06:49;;;;;;;59.97;36.30;;;15.10;99.90;;;;;;5093483;28;20078;-61
2023/10/09 04:11:46;;;;;;;64.05;36.60;;;15.20;99.90;;;;;;5093131;28;20139;-61
2023/10/09 04:14:21;;;;;;;53.53;35.58;;;15.30;99.90;;;;;;5093695;28;20058;-61
2023/10/09 04:17:04;;;;;;;56.28;33.90;;;15.40;99.90;;;;;;5103620;28;20490;-59
2023/10/09 04:19:38;;;;;;;52.03;34.00;;;15.20;99.90;;;;;;5077391;28;20056;-61
2023/10/09 04:22:07;;;;;;;55.85;34.25;;;15.30;99.90;;;;;;5125551;27;20036;-59
2023/10/09 04:24:51;;;;;;;51.75;33.00;;;15.30;99.90;;;;;;5092509;28;20371;-60
2023/10/09 04:27:17;;;;;;;56.17;34.03;;;15.60;99.90;;;;;;5092189;28;20040;-61
2023/10/09 04:29:47;;;;;;;50.00;33.05;;;15.40;99.90;;;;;;5096888;28;20043;-59
2023/10/09 04:32:18;;;;;;;49.95;32.70;;;15.50;99.90;;;;;;5090203;28;20093;-61
2023/10/09 04:34:56;;;;;;;48.78;31.48;;;15.40;99.90;;;;;;5092659;28;20036;-60
2023/10/09 04:37:37;;;;;;;46.28;30.38;;;15.70;99.90;;;;;;5090441;28;20072;-60
2023/10/09 04:40:41;;;;;;;50.80;30.92;;;15.70;99.90;;;;;;5093178;28;20082;-61
2023/10/09 04:43:05;;;;;;;48.53;31.35;;;15.50;99.90;;;;;;5092579;28;20845;-61
2023/10/09 04:48:10;;;;;;;48.10;30.02;;;15.60;99.90;;;;;;5092652;28;20042;-59
2023/10/09 04:50:45;;;;;;;48.42;29.45;;;15.90;99.90;;;;;;5092867;28;20043;-61
2023/10/09 04:55:44;;;;;;;44.28;27.73;;;15.60;99.90;;;;;;5091626;28;20047;-61
2023/10/09 04:58:25;;;;;;;41.83;26.13;;;15.80;99.90;;;;;;5092583;28;20036;-61
2023/10/09 05:03:57;;;;;;;35.15;24.88;;;15.90;99.90;;;;;;5113231;28;20054;-60
2023/10/09 05:06:21;;;;;;;37.10;24.13;;;15.90;99.90;;;;;;5099334;28;20048;-61
2023/10/09 05:08:48;;;;;;;40.97;23.90;;;15.70;99.90;;;;;;5091651;28;20040;-59
2023/10/09 05:14:11;;;;;;;38.40;22.75;;;15.70;99.90;;;;;;5092573;28;20062;-60
2023/10/09 05:16:48;;;;;;;36.03;22.05;;;16.00;99.90;;;;;;5090851;28;20040;-61
2023/10/09 05:19:29;;;;;;;33.72;21.75;;;15.80;99.90;;;;;;5091897;28;20032;-60
2023/10/09 05:21:58;;;;;;;29.65;19.88;;;16.10;99.90;;;;;;5071721;28;20560;-61
2023/10/09 05:24:26;;;;;;;33.10;19.38;;;16.20;99.90;;;;;;5090946;28;20066;-60
2023/10/09 05:26:52;;;;;;;29.88;18.77;;;16.20;99.90;;;;;;5110182;28;20036;-61
2023/10/09 05:29:19;;;;;;;27.73;17.90;;;16.10;99.90;;;;;;5096839;28;20449;-60
2023/10/09 05:32:15;;;;;;;27.20;13.43;;;16.20;99.90;;;;;;5090519;28;20094;-61
2023/10/09 05:35:29;;;;;;;27.20;16.40;;;15.90;99.90;;;;;;5090538;28;20120;-59
2023/10/09 05:37:33;;;;;;;26.75;16.38;;;16.00;99.90;;;;;;5100123;28;20043;-60
2023/10/09 05:47:56;;;;;;;26.50;15.60;;;16.10;99.90;;;;;;5112025;28;20047;-60
2023/10/09 05:57:09;;;;;;;;;;;16.40;99.90;;;;;;5097829;28;20035;-59
2023/10/09 06:03:54;;;;;;;;;;;16.10;99.90;;;;;;5087538;28;20040;-59
2023/10/09 06:06:42;;;;;;;23.70;13.27;;;16.40;99.90;;;;;;5091182;28;20007;-61
2023/10/09 06:19:26;;;;;;;21.95;13.43;;;16.20;99.90;;;;;;5108649;28;20051;-60
2023/10/09 06:24:41;;;;;;;22.30;12.93;;;16.20;99.90;;;;;;5091583;28;20059;-60
2023/10/09 06:29:36;;;;;;;19.23;12.35;;;16.20;99.90;;;;;;5089740;28;20063;-61
2023/10/09 06:46:52;;;;;;;21.13;10.27;;;16.50;99.90;;;;;;5093896;28;20072;-59
2023/10/09 06:48:45;;;;;;;20.40;8.18;;;16.40;99.90;;;;;;5085498;28;20047;-60
2023/10/09 06:59:23;;;;;;;23.40;10.00;;;16.70;99.90;;;;;;5058093;28;20071;-60
2023/10/09 07:06:59;;;;;;;16.95;9.48;;;16.70;99.90;;;;;;5074755;28;19953;-58
2023/10/09 07:09:42;;;;;;;16.42;9.27;;;16.70;99.90;;;;;;5075876;28;20060;-59
2023/10/09 07:12:25;;;;;;;19.15;9.38;;;16.80;99.90;;;;;;5073807;28;20051;-60
2023/10/09 07:20:36;;;;;;;18.13;9.13;;;16.50;99.90;;;;;;5092264;28;20040;-60
2023/10/09 07:23:15;;;;;;;17.33;9.80;;;16.50;99.90;;;;;;5091246;28;20121;-59
2023/10/09 07:25:54;;;;;;;20.20;10.10;;;16.50;99.90;;;;;;5105199;28;20510;-59
2023/10/09 07:28:42;;;;;;;19.90;9.98;;;16.80;99.90;;;;;;5090849;28;20032;-58
2023/10/09 07:31:16;;;;;;;21.90;9.50;;;16.70;99.90;;;;;;5092082;28;20040;-59
2023/10/09 07:33:56;;;;;;;17.33;9.52;;;16.80;99.90;;;;;;5075358;28;20093;-59
2023/10/09 07:36:34;;;;;;;17.23;9.55;;;16.70;99.90;;;;;;5092751;28;20118;-61
2023/10/09 07:39:02;;;;;;;19.80;9.82;;;16.80;99.90;;;;;;5093266;28;20083;-57
2023/10/09 07:43:57;;;;;;;20.10;9.70;;;17.00;99.90;;;;;;5092467;28;20056;-59
2023/10/09 07:49:12;;;;;;;16.15;9.88;;;17.00;99.90;;;;;;5091741;28;20487;-59
2023/10/09 07:51:46;;;;;;;18.73;10.73;;;17.00;99.90;;;;;;5094959;28;20093;-57
2023/10/09 07:54:14;;;;;;;22.10;10.57;;;16.80;99.90;;;;;;5092024;28;20028;-59
2023/10/09 07:56:45;;;;;;;21.45;12.27;;;17.00;99.90;;;;;;5093054;28;20114;-60
2023/10/09 07:59:18;;;;;;;22.45;11.77;;;16.90;99.90;;;;;;5092155;28;20039;-58
2023/10/09 08:01:52;;;;;;;20.33;12.35;;;17.00;99.90;;;;;;5092070;28;20032;-57
2023/10/09 08:04:37;;;;;;;19.15;10.93;;;16.70;99.90;;;;;;5091722;28;20051;-59
2023/10/09 08:07:19;;;;;;;19.00;11.30;;;17.10;99.90;;;;;;5092755;28;20043;-59
2023/10/09 08:09:48;;;;;;;24.50;11.10;;;16.80;99.90;;;;;;5093089;28;20095;-58
2023/10/09 08:12:39;;;;;;;20.60;10.60;;;17.10;99.90;;;;;;5091696;28;20188;-60
2023/10/09 08:17:58;;;;;;;19.55;10.10;;;17.20;99.90;;;;;;5091961;28;20475;-59
2023/10/09 08:20:25;;;;;;;18.65;9.40;;;17.30;99.90;;;;;;5091204;28;20040;-58
2023/10/09 08:22:55;;;;;;;16.48;10.00;;;17.00;99.90;;;;;;5090715;28;20147;-59
2023/10/09 08:25:26;;;;;;;19.95;9.60;;;17.00;99.90;;;;;;5091167;28;20036;-59
2023/10/09 08:30:44;;;;;;;20.77;9.60;;;17.10;99.90;;;;;;5091005;28;20105;-59
2023/10/09 08:33:56;;;;;;;19.00;9.50;;;17.50;99.90;;;;;;5089242;28;20047;-59
2023/10/09 08:36:22;;;;;;;17.92;8.98;;;17.50;99.90;;;;;;5075378;28;20043;-59
2023/10/09 08:38:46;;;;;;;17.70;9.80;;;17.20;99.90;;;;;;5087688;28;20425;-59
2023/10/09 08:41:21;;;;;;;18.48;9.80;;;17.60;99.90;;;;;;5085246;28;20036;-58
2023/10/09 08:43:51;;;;;;;19.10;9.45;;;17.50;99.90;;;;;;5088541;28;20043;-60
2023/10/09 08:46:29;;;;;;;19.60;9.52;;;17.50;99.90;;;;;;5091780;28;20044;-60
2023/10/09 08:48:56;;;;;;;16.92;9.52;;;17.60;99.90;;;;;;5093439;28;20151;-59
2023/10/09 08:51:25;;;;;;;20.02;8.32;;;17.30;99.90;;;;;;5095582;28;20054;-62
2023/10/09 08:53:52;;;;;;;17.65;9.20;;;17.50;99.90;;;;;;5093149;28;20036;-59
2023/10/09 08:56:24;;;;;;;18.30;9.05;;;17.50;99.90;;;;;;5096904;28;20083;-60
2023/10/09 08:58:57;;;;;;;21.05;7.60;;;17.40;99.90;;;;;;5095676;28;20086;-59
2023/10/09 09:01:24;;;;;;;18.02;9.35;;;17.30;99.90;;;;;;5092895;28;20122;-62
2023/10/09 09:03:51;;;;;;;19.63;9.32;;;17.50;99.90;;;;;;5091849;28;20097;-61
2023/10/09 09:06:19;;;;;;;16.33;9.45;;;17.40;99.90;;;;;;5096562;28;20395;-60
2023/10/09 09:08:46;;;;;;;18.63;8.95;;;17.60;99.90;;;;;;5096618;28;20047;-59
2023/10/09 09:11:22;;;;;;;22.42;9.55;;;17.40;99.90;;;;;;5092925;28;20031;-59
2023/10/09 09:14:22;;;;;;;21.20;9.38;;;17.30;99.90;;;;;;5090662;28;20081;-59
2023/10/09 09:16:48;;;;;;;24.05;9.63;;;17.30;99.90;;;;;;5086102;28;20043;-59
2023/10/09 09:19:17;;;;;;;18.15;8.70;;;17.20;99.90;;;;;;5090694;28;20073;-59
2023/10/09 09:21:50;;;;;;;20.75;9.30;;;17.50;99.90;;;;;;5098546;28;20044;-58
2023/10/09 09:26:59;;;;;;;17.35;8.95;;;17.40;99.90;;;;;;5085584;28;20044;-59
2023/10/09 09:29:41;;;;;;;21.15;8.32;;;17.60;99.90;;;;;;5086694;28;20604;-59
2023/10/09 09:32:20;;;;;;;17.27;8.32;;;17.60;99.90;;;;;;5091456;28;20032;-59
2023/10/09 09:34:57;;;;;;;16.15;7.47;;;17.60;99.90;;;;;;5083849;28;20399;-59
2023/10/09 09:37:28;;;;;;;18.13;8.10;;;17.50;99.90;;;;;;5096079;28;20055;-58
2023/10/09 09:40:15;;;;;;;16.38;7.80;;;17.70;99.90;;;;;;5111548;28;20070;-58
2023/10/09 09:42:48;;;;;;;21.05;8.07;;;17.50;99.90;;;;;;5112014;28;20390;-60
2023/10/09 09:45:14;;;;;;;22.13;8.13;;;17.50;99.90;;;;;;5089473;28;20035;-59
2023/10/09 09:47:51;;;;;;;18.67;7.95;;;17.50;99.90;;;;;;5091035;28;20495;-60
2023/10/09 09:50:29;;;;;;;18.65;7.15;;;17.70;99.90;;;;;;5100633;28;20032;-60
2023/10/09 09:52:56;;;;;;;19.13;7.50;;;17.70;99.90;;;;;;5111686;28;20046;-59
2023/10/09 09:55:30;;;;;;;19.17;6.72;;;17.50;99.90;;;;;;5093453;28;20107;-60
2023/10/09 09:57:58;;;;;;;19.42;6.18;;;17.50;99.90;;;;;;5090885;28;20085;-59
2023/10/09 10:00:42;;;;;;;21.13;7.15;;;17.50;99.90;;;;;;5091160;28;20051;-60
2023/10/09 10:03:20;;;;;;;20.95;7.07;;;17.50;99.90;;;;;;5090915;28;20436;-60
2023/10/09 10:05:48;;;;;;;16.55;6.63;;;17.60;99.90;;;;;;5091243;28;20039;-59
2023/10/09 10:08:30;;;;;;;16.75;7.63;;;17.60;99.90;;;;;;5090225;28;20074;-59
2023/10/09 10:11:04;;;;;;;18.95;7.40;;;17.60;99.90;;;;;;5109170;28;20027;-58
2023/10/09 10:13:42;;;;;;;15.50;7.05;;;17.50;99.90;;;;;;5112304;28;20449;-57
2023/10/09 10:21:53;;;;;;;18.25;7.00;;;17.70;99.90;;;;;;5103824;28;20062;-59
2023/10/09 10:25:09;;;;;;;17.48;6.88;;;17.70;99.90;;;;;;5102942;28;20047;-59
2023/10/09 10:27:31;;;;;;;20.63;5.55;;;17.70;99.90;;;;;;5102480;28;20047;-58
2023/10/09 10:30:30;;;;;;;16.23;6.50;;;17.80;99.90;;;;;;5105383;28;20036;-60
2023/10/09 10:32:57;;;;;;;17.13;5.80;;;17.70;99.90;;;;;;5091172;28;20450;-60
2023/10/09 10:35:36;;;;;;;15.65;6.75;;;17.90;99.90;;;;;;5091582;28;20043;-58
2023/10/09 10:38:11;;;;;;;18.05;6.18;;;17.90;99.90;;;;;;5105283;28;20051;-58
2023/10/09 10:40:46;;;;;;;12.20;5.80;;;17.90;99.90;;;;;;5109437;28;20039;-59
2023/10/09 10:48:59;;;;;;;12.93;6.38;;;18.10;99.90;;;;;;5078818;28;20040;-58
2023/10/09 10:51:37;;;;;;;15.77;6.00;;;18.00;99.90;;;;;;5079667;28;20881;-59
2023/10/09 10:56:49;;;;;;;15.30;6.35;;;18.10;99.90;;;;;;5081890;28;20040;-62
2023/10/09 10:59:22;;;;;;;13.35;5.82;;;18.20;99.90;;;;;;5082373;28;20123;-57
2023/10/09 11:07:09;;;;;;;15.55;5.90;;;18.20;99.90;;;;;;5081073;28;20877;-60
2023/10/09 11:12:37;;;;;;;14.60;5.88;;;18.20;99.90;;;;;;5080158;28;20048;-60
2023/10/09 11:15:08;;;;;;;13.18;5.43;;;18.30;99.90;;;;;;5080674;28;20043;-61
2023/10/09 11:17:38;;;;;;;17.17;6.75;;;18.40;99.90;;;;;;5073665;28;20356;-59
2023/10/09 11:20:25;;;;;;;14.65;6.38;;;18.30;99.90;;;;;;5077540;28;20398;-61
2023/10/09 11:25:39;;;;;;;19.90;6.57;;;18.50;99.90;;;;;;5075384;28;20052;-61
2023/10/09 11:28:48;;;;;;;16.10;6.43;;;18.40;99.90;;;;;;5074280;28;20036;-60
2023/10/09 11:31:16;;;;;;;14.25;6.55;;;18.30;99.90;;;;;;5080674;28;20091;-59
2023/10/09 11:33:45;;;;;;;15.32;6.25;;;18.40;99.90;;;;;;5074648;28;20032;-60
2023/10/09 11:36:11;;;;;;;15.68;7.13;;;18.40;99.90;;;;;;5080409;28;20051;-59
2023/10/09 11:38:38;;;;;;;17.48;6.95;;;18.40;99.90;;;;;;5080380;28;20043;-59
2023/10/09 11:41:19;;;;;;;15.70;7.07;;;18.20;99.90;;;;;;5081318;28;20510;-61
2023/10/09 11:43:54;;;;;;;16.38;6.80;;;18.40;99.90;;;;;;5080259;28;20379;-60
2023/10/09 11:49:44;;;;;;;14.00;6.47;;;18.50;99.90;;;;;;4993787;28;20045;-61
2023/10/09 11:54:38;;;;;;;17.13;7.10;;;18.70;99.90;;;;;;5080391;28;20044;-60
2023/10/09 11:57:04;;;;;;;15.60;5.80;;;18.90;99.90;;;;;;5080647;28;20032;-61
2023/10/09 11:59:37;;;;;;;13.20;5.97;;;19.00;99.90;;;;;;5080005;28;20043;-60
2023/10/09 12:02:13;;;;;;;12.47;5.60;;;19.20;99.90;;;;;;5079795;28;20039;-62
2023/10/09 12:04:42;;;;;;;11.55;5.05;;;19.50;99.90;;;;;;5080763;28;20036;-61
2023/10/09 12:07:10;;;;;;;12.70;5.45;;;19.70;99.90;;;;;;5079977;28;20395;-60
2023/10/09 12:09:37;;;;;;;14.52;5.20;;;20.00;99.90;;;;;;5060370;28;20048;-63
2023/10/09 12:12:09;;;;;;;17.80;6.05;;;20.00;99.90;;;;;;5077838;28;20059;-61
2023/10/09 12:14:37;;;;;;;12.77;5.68;;;20.10;99.90;;;;;;5077896;28;20039;-59
2023/10/09 12:17:07;;;;;;;14.50;5.68;;;20.10;99.90;;;;;;5075550;28;20157;-59
2023/10/09 12:19:38;;;;;;;13.27;5.88;;;20.10;99.90;;;;;;5076458;28;20036;-60
2023/10/09 12:22:16;;;;;;;11.45;5.18;;;20.20;99.90;;;;;;5076140;28;20054;-59
2023/10/09 12:24:43;;;;;;;12.35;4.75;;;20.10;99.90;;;;;;5077708;28;20040;-60
2023/10/09 12:27:12;;;;;;;11.65;4.40;;;20.00;99.90;;;;;;5079418;28;20048;-59
2023/10/09 12:29:44;;;;;;;13.27;4.30;;;19.90;99.90;;;;;;5077616;28;20043;-59
2023/10/09 12:32:10;;;;;;;11.52;4.32;;;19.80;99.90;;;;;;5079182;28;20671;-59
2023/10/09 12:34:38;;;;;;;11.98;4.30;;;19.80;99.90;;;;;;5076506;28;20113;-59
2023/10/09 12:37:04;;;;;;;10.40;4.15;;;19.80;99.90;;;;;;5073154;28;20040;-59
2023/10/09 12:39:33;;;;;;;11.63;4.20;;;19.70;99.90;;;;;;5072744;28;20056;-58
2023/10/09 12:42:06;;;;;;;10.05;4.07;;;19.60;99.90;;;;;;5073551;28;20514;-59
2023/10/09 12:44:42;;;;;;;12.45;4.45;;;19.60;99.90;;;;;;5074010;28;20480;-58
2023/10/09 12:47:11;;;;;;;9.98;4.15;;;19.50;99.90;;;;;;5076786;28;20040;-60
2023/10/09 12:49:40;;;;;;;13.52;4.20;;;19.40;99.90;;;;;;5075431;28;20040;-59
2023/10/09 12:52:15;;;;;;;9.65;3.83;;;19.40;99.90;;;;;;5075101;28;20043;-60
2023/10/09 12:54:47;;;;;;;13.55;4.35;;;19.40;99.90;;;;;;5076259;28;20036;-58
2023/10/09 12:57:16;;;;;;;11.40;4.57;;;19.50;99.90;;;;;;5074218;28;20040;-59
2023/10/09 12:59:48;;;;;;;11.00;4.03;;;19.50;99.90;;;;;;5099012;27;20031;-58
2023/10/09 13:02:28;;;;;;;10.30;3.92;;;19.30;99.90;;;;;;5074786;28;20032;-59
2023/10/09 13:05:00;;;;;;;10.50;4.40;;;19.40;99.90;;;;;;5071991;28;20028;-59
2023/10/09 13:07:25;;;;;;;12.25;4.35;;;19.40;99.90;;;;;;5079479;28;20046;-58
2023/10/09 13:10:12;;;;;;;11.40;5.07;;;19.50;99.90;;;;;;5078969;28;20051;-58
2023/10/09 13:12:43;;;;;;;10.25;4.15;;;19.40;99.90;;;;;;5077545;28;20176;-59
2023/10/09 13:15:10;;;;;;;10.40;4.70;;;19.40;99.90;;;;;;5079650;28;20088;-59
2023/10/09 13:17:39;;;;;;;12.88;4.68;;;19.30;99.90;;;;;;5078669;28;20032;-59
2023/10/09 13:20:15;;;;;;;14.27;5.32;;;19.30;99.90;;;;;;5078400;28;20059;-59
2023/10/09 13:22:42;;;;;;;15.77;5.03;;;19.20;99.90;;;;;;5078005;28;20517;-58
2023/10/09 13:25:15;;;;;;;11.80;4.25;;;19.20;99.90;;;;;;5078442;28;20036;-59
2023/10/09 13:27:50;;;;;;;12.17;5.40;;;19.20;99.90;;;;;;5076286;28;20479;-57
2023/10/09 13:30:23;;;;;;;16.95;4.97;;;19.20;99.90;;;;;;5077440;28;20362;-60
2023/10/09 13:32:50;;;;;;;13.32;4.88;;;19.20;99.90;;;;;;5077813;28;20422;-58
2023/10/09 13:35:18;;;;;;;11.90;4.50;;;19.10;99.90;;;;;;5078029;28;20043;-61
2023/10/09 13:37:53;;;;;;;10.45;4.43;;;19.20;99.90;;;;;;5077331;28;20110;-58
2023/10/09 13:40:29;;;;;;;15.02;3.95;;;19.10;99.90;;;;;;5083118;28;20071;-60
2023/10/09 13:43:01;;;;;;;10.82;3.20;;;19.10;99.90;;;;;;5088547;28;20046;-58
2023/10/09 13:45:28;;;;;;;10.70;3.28;;;19.10;99.90;;;;;;5103873;28;20039;-59
2023/10/09 13:47:57;;;;;;;13.55;3.60;;;19.10;99.90;;;;;;5109305;28;20038;-57
2023/10/09 13:50:32;;;;;;;8.48;3.08;;;19.00;99.90;;;;;;5094970;28;20043;-58
2023/10/09 13:52:59;;;;;;;6.78;2.90;;;18.80;99.90;;;;;;5085775;28;20111;-53
2023/10/09 13:55:31;;;;;;;7.32;2.75;;;18.80;99.90;;;;;;5073820;28;20185;-58
2023/10/09 13:57:58;;;;;;;11.52;3.00;;;18.80;99.90;;;;;;5079696;28;20036;-58
2023/10/09 14:00:33;;;;;;;9.85;3.13;;;18.70;99.90;;;;;;5073476;28;20031;-59
2023/10/09 14:03:11;;;;;;;7.88;2.90;;;18.70;99.90;;;;;;5091611;28;20036;-58
2023/10/09 14:05:44;;;;;;;11.77;3.78;;;18.80;99.90;;;;;;5088786;28;20040;-59
2023/10/09 14:08:10;;;;;;;9.45;3.85;;;18.80;99.90;;;;;;5084148;28;20047;-58
2023/10/09 14:10:38;;;;;;;12.27;3.83;;;18.80;99.90;;;;;;5095036;28;20516;-58
2023/10/09 14:13:12;;;;;;;13.13;3.50;;;18.90;99.90;;;;;;5092616;28;20055;-57
2023/10/09 14:15:41;;;;;;;8.77;3.47;;;18.80;99.90;;;;;;5096623;28;20099;-59
2023/10/09 14:18:09;;;;;;;10.43;3.67;;;18.90;99.90;;;;;;5090282;28;20036;-58
2023/10/09 14:20:35;;;;;;;10.90;3.88;;;18.80;99.90;;;;;;5088108;28;20047;-58
2023/10/09 14:23:08;;;;;;;9.93;3.70;;;18.70;99.90;;;;;;5088590;28;20043;-58
2023/10/09 14:25:37;;;;;;;13.90;4.25;;;18.70;99.90;;;;;;5089279;28;20046;-59
2023/10/09 14:28:07;;;;;;;13.65;4.63;;;18.70;99.90;;;;;;5090476;28;20495;-59
2023/10/09 14:30:41;;;;;;;14.27;5.22;;;18.80;99.90;;;;;;5106737;28;20043;-60
2023/10/09 14:33:12;;;;;;;15.20;5.57;;;18.60;99.90;;;;;;5102304;28;20549;-58
2023/10/09 14:35:42;;;;;;;14.02;5.45;;;18.80;99.90;;;;;;5091859;28;20044;-58
2023/10/09 14:38:15;;;;;;;16.95;6.38;;;18.70;99.90;;;;;;5111799;28;20658;-58
2023/10/09 14:40:45;;;;;;;16.00;6.13;;;18.60;99.90;;;;;;5091597;28;20574;-59
2023/10/09 14:43:22;;;;;;;15.93;6.43;;;18.60;99.90;;;;;;5091158;28;20039;-58
2023/10/09 14:45:48;;;;;;;19.73;6.72;;;18.70;99.90;;;;;;5110137;28;20108;-60
2023/10/09 14:48:25;;;;;;;16.30;6.20;;;18.60;99.90;;;;;;5107789;28;20135;-60
2023/10/09 14:50:57;;;;;;;17.75;7.32;;;18.50;99.90;;;;;;5090766;28;20051;-60
2023/10/09 14:53:29;;;;;;;16.10;6.50;;;18.60;99.90;;;;;;5090089;28;20452;-59
2023/10/09 14:55:59;;;;;;;19.90;6.72;;;18.50;99.90;;;;;;5109104;28;20035;-57
2023/10/09 14:58:25;;;;;;;26.38;7.32;;;18.60;99.90;;;;;;5098912;28;20046;-60
2023/10/09 15:00:52;;;;;;;17.88;6.75;;;18.70;99.90;;;;;;5089511;28;20095;-60
2023/10/09 15:03:19;;;;;;;17.85;6.53;;;18.70;99.90;;;;;;5084779;28;20100;-58
2023/10/09 15:05:46;;;;;;;14.60;6.38;;;18.60;99.90;;;;;;5088926;28;20040;-58
2023/10/09 15:08:11;;;;;;;15.60;6.63;;;18.50;99.90;;;;;;5087344;28;20152;-60
2023/10/09 15:10:47;;;;;;;18.08;7.40;;;18.60;99.90;;;;;;5090526;28;20062;-59
2023/10/09 15:13:16;;;;;;;19.55;7.30;;;18.60;99.90;;;;;;5086029;28;20048;-59
2023/10/09 15:15:42;;;;;;;19.63;6.30;;;18.50;99.90;;;;;;5086319;28;20043;-59
2023/10/09 15:18:11;;;;;;;17.10;6.57;;;18.50;99.90;;;;;;5086172;28;20059;-59
2023/10/09 15:20:39;;;;;;;18.42;6.63;;;18.60;99.90;;;;;;5081387;28;20118;-58
2023/10/09 15:23:06;;;;;;;20.55;6.07;;;18.60;99.90;;;;;;5087804;28;20047;-60
2023/10/09 15:25:33;;;;;;;15.73;6.05;;;18.50;99.90;;;;;;5088258;28;20068;-58
2023/10/09 15:28:00;;;;;;;16.42;5.93;;;18.40;99.90;;;;;;5088311;28;20389;-59
2023/10/09 15:30:26;;;;;;;16.35;6.15;;;18.50;99.90;;;;;;5086196;28;20070;-59
2023/10/09 15:32:52;;;;;;;15.40;6.20;;;18.50;99.90;;;;;;5086030;28;20036;-60